Nearby METAR Reports

 

KHIF - Hill Afb/Ogden, Utah, USA
Distance from station: ENE 6mi, 9km
Updated: Mon, 22-Jan-2018 3:58am MST
Clear
Clear
 Wind from ESE
Wind: ESE 16 mph , 26 km/h
Temperature: 18°F , -8°C
Wind Chill: 3°F , -16°C
Dew Point: 10°F , -12°C
Humidity: 73%
Barometer: 30.27 inHg , 1025.1 hPa
Clouds: Clear
Visibility: 10 miles , 16 km
2018/01/22 10:58 KHIF 221058Z AUTO 11014KT 10SM CLR M08/M12 A3027 RMK AO2 SLP280 T10761121
KOGD - Ogden, Utah, USA
Distance from station: NNE 9mi, 14km
Updated: Mon, 22-Jan-2018 3:53am MST
Clear
Clear
 Wind from S
Wind: S 9 mph , 15 km/h
Temperature: 19°F , -7°C
Wind Chill: 8°F , -13°C
Dew Point: 12°F , -11°C
Humidity: 73%
Barometer: 30.28 inHg , 1025.4 hPa
Clouds: Clear
Visibility: 10 miles , 16 km
2018/01/22 10:53 KOGD 221053Z AUTO 17008KT 10SM CLR M07/M11 A3028 RMK AO2 SLP276 T10721111
 
KSLC - Salt Lake City, Utah, USA
Distance from station: SSE 21mi, 34km
Updated: Mon, 22-Jan-2018 3:54am MST
Few Clouds
Few Clouds
 Wind from SE
Wind: SE 12 mph , 19 km/h
Temperature: 27°F , -3°C
Wind Chill: 16°F , -9°C
Dew Point: 18°F , -8°C
Humidity: 69%
Barometer: 30.29 inHg , 1025.7 hPa
Clouds: Few Clouds
Visibility: 10 miles , 16 km
Cloud details: Few Clouds 21000 ft
2018/01/22 10:54 KSLC 221054Z 14010KT 10SM FEW210 M03/M08 A3029 RMK AO2 SLP274 T10331078
KLGU - Logan, Utah, USA
Distance from station: NNE 50mi, 80km
Updated: Mon, 22-Jan-2018 3:51am MST
Few Clouds
Few Clouds
 Wind from E
Wind: E 5 mph , 7 km/h
Temperature: 10°F , -12°C
Wind Chill: 1°F , -17°C
Dew Point: 3°F , -16°C
Humidity: 72%
Barometer: 30.29 inHg , 1025.7 hPa
Clouds: Few Clouds
Visibility: 9 miles , 14 km
Cloud details: Few Clouds 100 ft
2018/01/22 10:51 KLGU 221051Z AUTO 09004KT 9SM FEW001 M12/M16 A3029 RMK AO2 SLP298 T11221156 $
 
K36U - Heber/Russ Mcdon, Utah, USA
Distance from station: SE 53mi, 85km
Updated: Wed, 11-Oct-2017 6:50pm MDT
NOT Current
Clear
Clear
 Wind from SSW
Wind: SSW 10 mph , 17 km/h, Gust: 18 mph , 30 km/h
Temperature: 63°F , 17°C
Dew Point: 16°F , -9°C
Humidity: 16%
Barometer: 29.87 inHg , 1011.5 hPa
Clouds: Clear
Visibility: 10 miles , 16 km
2017/10/12 00:50 K36U 120050Z AUTO 21009G16KT 10SM CLR 17/M09 A2987 RMK AO2
KEVW - Evanston, Wyoming, USA
Distance from station: ENE 55mi, 89km
Updated: Mon, 22-Jan-2018 3:53am MST
Clear
Clear
 Wind from WSW
Wind: WSW 12 mph , 19 km/h
Temperature: 5°F , -15°C
Wind Chill: -11°F , -24°C
Dew Point: 3°F , -16°C
Humidity: 92%
Barometer: 30.18 inHg , 1022 hPa
Clouds: Clear
Visibility: 10 miles , 16 km
2018/01/22 10:53 KEVW 221053Z AUTO 24010KT 10SM CLR M15/M16 A3018 RMK AO2 SLP292 T11501161 $
 
KPVU - Provo Muni, Utah, USA
Distance from station: SSE 62mi, 100km
Updated: Mon, 22-Jan-2018 3:56am MST
Clear
Clear
 Wind from ESE
Wind: ESE 6 mph , 9 km/h
Temperature: 12°F , -11°C
Wind Chill: 2°F , -17°C
Dew Point: 9°F , -13°C
Humidity: 85%
Barometer: 30.34 inHg , 1027.4 hPa
Clouds: Clear
Visibility: 10 miles , 16 km
2018/01/22 10:56 KPVU 221056Z AUTO 12005KT 10SM CLR M11/M13 A3034 RMK AO2 SLP315 T11111133 FZRANO
KDPG - Dugway Prvg Grou, Utah, USA
Distance from station: SW 75mi, 121km
Updated: Thu, 18-Jan-2018 4:55pm MST
NOT Current
Overcast
Overcast
 Wind from SE
Wind: SE 10 mph , 17 km/h
Temperature: 50°F , 10°C
Wind Chill: 46°F , 8°C
Dew Point: 30°F , -1°C
Humidity: 47%
Barometer: 29.99 inHg , 1015.6 hPa
Clouds: Overcast
Visibility: 35 miles , 56 km
Cloud details: Few Clouds 9000 ft
Partly cloudy 15000 ft
Mostly cloudy 17000 ft
Overcast 19000 ft
2018/01/18 23:55 KDPG 182355Z 13009KT 35SM FEW090 SCT150 BKN170 OVC190 10/M01 A2999 RMK ACSL DSNT NE SE AND SW SLP150 T01021012 10133 20071 56021 LAST
 
KENV - Wendover (aut), Utah, USA
Distance from station: WSW 105mi, 169km
Updated: Mon, 22-Jan-2018 3:56am MST
Few Clouds
Few Clouds
 Wind from NE
Wind: NE 8 mph , 13 km/h
Temperature: 19°F , -7°C
Wind Chill: 9°F , -13°C
Dew Point: 14°F , -10°C
Humidity: 79%
Barometer: 30.28 inHg , 1025.4 hPa
Clouds: Few Clouds
Visibility: 10 miles , 16 km
Cloud details: Few Clouds 11000 ft
2018/01/22 10:56 KENV 221056Z AUTO 04007KT 10SM FEW110 M07/M10 A3028 RMK AO2 SLP286 T10671100 FZRANO
KPUC - Price, Utah, USA
Distance from station: SE 123mi, 197km
Updated: Mon, 22-Jan-2018 3:53am MST
Clear
Clear
 Wind from NNE
Wind: NNE 3 mph , 6 km/h
Temperature: 12°F , -11°C
Dew Point: 5°F , -15°C
Humidity: 73%
Barometer: 30.19 inHg , 1022.4 hPa
Clouds: Clear
Visibility: 10 miles , 16 km
2018/01/22 10:53 KPUC 221053Z AUTO 03003KT 10SM CLR M11/M15 A3019 RMK AO2 SLP288 T11111150
 
KPIH - Pocatello, Idaho, USA
Distance from station: NNW 130mi, 208km
Updated: Mon, 22-Jan-2018 3:53am MST
Mostly cloudy
Mostly cloudy
 Wind from E
Wind: E 3 mph , 6 km/h
Temperature: 28°F , -2°C
Dew Point: 18°F , -8°C
Humidity: 64%
Barometer: 30.20 inHg , 1022.7 hPa
Clouds: Mostly cloudy
Visibility: 10 miles , 16 km
Cloud details: Mostly cloudy 11000 ft
2018/01/22 10:53 KPIH 221053Z AUTO 10003KT 10SM BKN110 M02/M08 A3020 RMK AO2 SLP249 T10221078 $
KBYI - Burley, Idaho, USA
Distance from station: NW 134mi, 216km
Updated: Mon, 22-Jan-2018 3:53am MST
Overcast
Overcast
 Wind from SW
Wind: SW 9 mph , 15 km/h
Temperature: 34°F , 1°C
Wind Chill: 27°F , -3°C
Dew Point: 18°F , -8°C
Humidity: 51%
Barometer: 30.20 inHg , 1022.7 hPa
Clouds: Overcast
Visibility: 10 miles , 16 km
Cloud details: Overcast 7500 ft
2018/01/22 10:53 KBYI 221053Z AUTO 22008KT 10SM OVC075 01/M08 A3020 RMK AO2 SLP234 T00111078 $
 
KVEL - Vernal, Utah, USA
Distance from station: ESE 140mi, 226km
Updated: Mon, 22-Jan-2018 3:53am MST
Clear
Clear
 Wind from NNE
Wind: NNE 3 mph , 6 km/h
Temperature: 3°F , -16°C
Dew Point: -0°F , -18°C
Humidity: 85%
Barometer: 30.23 inHg , 1023.7 hPa
Clouds: Clear
Visibility: 10 miles , 16 km
2018/01/22 10:53 KVEL 221053Z AUTO 03003KT 10SM CLR M16/M18 A3023 RMK AO2 SLP290 T11561178
KBPI - Big Piney, Wyoming, USA
Distance from station: NE 145mi, 234km
Updated: Mon, 22-Jan-2018 3:53am MST
Clear
Clear
 Wind from varies
Wind: varies 5 mph , 7 km/h
Temperature: -0°F , -18°C
Wind Chill: -11°F , -24°C
Dew Point: -6°F , -21°C
Humidity: 78%
Barometer: 30.12 inHg , 1020 hPa
Clouds: Clear
Visibility: 10 miles , 16 km
2018/01/22 10:53 KBPI 221053Z AUTO VRB04KT 10SM CLR M18/M21 A3012 RMK AO2 SLP262 T11831211